Time;durP1;ratioP1;P1;durP2;ratioP2;P2;SDS_P1;SDS_P2;PMS_P1;PMS_P2;Temp;Humidity;BMP_temperature;BMP_pressure;BME280_temperature;BME280_humidity;BME280_pressure;Samples;Min_cycle;Max_cycle;Signal;HPM_P1;HPM_P2
2022/11/13 00:00:52;;;;;;;39.45;29.02;;;;;;;8.79;100.00;101188.00;4880231;29;20028;-84
2022/11/13 00:03:17;;;;;;;39.22;28.58;;;;;;;8.87;100.00;101201.72;4879893;29;20079;-84
2022/11/13 00:05:42;;;;;;;38.85;27.50;;;;;;;8.89;100.00;101207.78;4863163;29;20029;-84
2022/11/13 00:08:08;;;;;;;40.58;27.85;;;;;;;8.92;100.00;101212.06;4863361;29;20048;-84
2022/11/13 00:10:33;;;;;;;40.72;30.10;;;;;;;8.90;100.00;101203.44;4863020;29;20670;-84
2022/11/13 00:12:58;;;;;;;44.80;30.33;;;;;;;8.92;100.00;101204.25;4863258;29;20466;-84
2022/11/13 00:15:24;;;;;;;40.28;29.45;;;;;;;8.92;100.00;101204.25;4862944;29;20037;-83
2022/11/13 00:17:50;;;;;;;39.13;28.98;;;;;;;8.84;100.00;101187.91;4879620;29;20041;-84
2022/11/13 00:20:17;;;;;;;42.42;29.88;;;;;;;8.90;100.00;101201.69;4879424;29;20025;-84
2022/11/13 00:22:42;;;;;;;40.92;29.63;;;;;;;8.89;100.00;101199.09;4875760;29;20053;-84
2022/11/13 00:25:08;;;;;;;35.78;26.85;;;;;;;8.90;100.00;101203.44;4881373;29;20384;-84
2022/11/13 00:27:33;;;;;;;37.53;27.27;;;;;;;8.89;100.00;101206.91;4897963;29;20036;-84
2022/11/13 00:29:58;;;;;;;36.65;28.67;;;;;;;8.86;100.00;101194.81;4898540;29;20130;-84
2022/11/13 00:32:25;;;;;;;30.55;22.33;;;;;;;8.85;100.00;101206.09;4898239;29;20513;-84
2022/11/13 00:34:51;;;;;;;29.10;22.65;;;;;;;8.76;100.00;101198.41;4898130;29;20025;-84
2022/11/13 00:37:16;;;;;;;36.47;25.25;;;;;;;8.79;100.00;101194.94;4897743;29;20812;-82
2022/11/13 00:39:41;;;;;;;30.85;21.77;;;;;;;8.78;100.00;101188.03;4898194;29;20080;-82
2022/11/13 00:42:07;;;;;;;29.77;22.88;;;;;;;8.74;100.00;101198.44;4881329;29;20468;-82
2022/11/13 00:44:32;;;;;;;34.03;23.80;;;;;;;8.69;100.00;101189.88;4897790;29;20104;-83
2022/11/13 00:46:57;;;;;;;27.23;20.98;;;;;;;8.69;100.00;101192.47;4897926;29;20039;-82
2022/11/13 00:49:23;;;;;;;27.50;21.35;;;;;;;8.64;100.00;101183.03;4897875;29;20068;-84
2022/11/13 00:51:48;;;;;;;26.20;19.50;;;;;;;8.62;100.00;101177.84;4880873;29;20024;-84
2022/11/13 00:54:13;;;;;;;23.42;18.63;;;;;;;8.62;100.00;101180.44;4897882;29;20042;-84
2022/11/13 00:56:39;;;;;;;24.95;19.15;;;;;;;8.63;100.00;101178.69;4897518;29;20053;-82
2022/11/13 00:59:04;;;;;;;28.90;20.58;;;;;;;8.63;100.00;101173.50;4897597;29;20025;-84
2022/11/13 01:01:30;;;;;;;28.40;20.13;;;;;;;8.58;100.00;101180.50;4880619;29;20035;-84
2022/11/13 01:03:55;;;;;;;25.63;18.58;;;;;;;8.52;100.00;101175.41;4880770;29;20029;-84
2022/11/13 01:06:24;;;;;;;26.88;20.27;;;;;;;8.57;100.00;101171.00;4897519;29;20070;-85
2022/11/13 01:08:52;;;;;;;31.35;21.58;;;;;;;8.55;100.00;101165.81;4880891;29;20048;-84
2022/11/13 01:11:20;;;;;;;26.45;19.77;;;;;;;8.49;100.00;101160.72;4897509;29;20032;-83
2022/11/13 01:13:47;;;;;;;27.55;20.17;;;;;;;8.53;100.00;101162.41;4880727;29;20063;-84
2022/11/13 01:16:15;;;;;;;33.88;21.70;;;;;;;8.56;100.00;101170.16;4897555;29;20116;-84
2022/11/13 01:18:41;;;;;;;32.13;23.05;;;;;;;8.59;100.00;101171.84;4897034;29;20024;-84
2022/11/13 01:21:19;;;;;;;30.95;22.17;;;;;;;8.52;100.00;101158.09;4880211;29;20123;-85
2022/11/13 01:23:45;;;;;;;27.55;20.77;;;;;;;8.56;100.00;101162.38;4897336;29;20035;-84
2022/11/13 01:26:17;;;;;;;26.33;20.27;;;;;;;8.54;100.00;101142.47;4880377;29;20028;-84
2022/11/13 01:28:44;;;;;;;27.88;20.85;;;;;;;8.58;100.00;101150.19;4880394;29;20028;-84
2022/11/13 01:31:17;;;;;;;28.80;21.55;;;;;;;8.56;100.00;101148.53;4880331;29;20028;-84
2022/11/13 01:33:44;;;;;;;34.40;22.17;;;;;;;8.44;100.00;101121.84;4880483;29;20031;-85
2022/11/13 01:36:12;;;;;;;29.60;20.92;;;;;;;8.53;100.00;101139.03;4897244;29;20032;-84
2022/11/13 01:38:38;;;;;;;28.60;21.55;;;;;;;8.45;100.00;101136.53;4896991;29;20538;-84
2022/11/13 01:41:05;;;;;;;30.23;20.67;;;;;;;8.42;100.00;101133.97;4897087;29;20048;-84
2022/11/13 01:43:33;;;;;;;29.17;20.52;;;;;;;8.45;100.00;101146.91;4880000;29;20374;-84
2022/11/13 01:45:58;;;;;;;28.33;21.67;;;;;;;8.42;100.00;101140.91;4880040;29;20024;-84
2022/11/13 01:48:38;;;;;;;30.40;23.77;;;;;;;8.34;100.00;101130.59;4880107;29;20135;-85
2022/11/13 01:51:10;;;;;;;32.47;24.70;;;;;;;8.31;100.00;101133.25;4880249;29;20028;-84
2022/11/13 01:53:35;;;;;;;34.08;25.13;;;;;;;8.29;100.00;101128.94;4879995;29;20084;-84
2022/11/13 01:56:01;;;;;;;28.77;21.40;;;;;;;8.30;100.00;101134.13;4896834;29;20368;-84
2022/11/13 01:58:27;;;;;;;27.23;22.10;;;;;;;8.24;100.00;101129.88;4896539;29;20029;-84
2022/11/13 02:00:52;;;;;;;27.77;20.95;;;;;;;8.23;100.00;101132.50;4896772;29;20089;-84
2022/11/13 02:03:18;;;;;;;29.42;21.50;;;;;;;8.16;100.00;101125.66;4880190;29;20064;-84
2022/11/13 02:05:43;;;;;;;31.73;23.80;;;;;;;8.05;100.00;101111.94;4879948;29;20032;-84
2022/11/13 02:08:08;;;;;;;26.95;19.33;;;;;;;8.14;100.00;101125.69;4880470;29;20021;-84
2022/11/13 02:10:34;;;;;;;33.28;22.10;;;;;;;8.07;100.00;101116.25;4883562;29;20412;-84
2022/11/13 02:12:59;;;;;;;28.85;22.13;;;;;;;8.10;100.00;101125.75;4900589;29;20092;-84
2022/11/13 02:15:27;;;;;;;28.00;21.15;;;;;;;7.98;100.00;101113.78;4900605;29;20135;-84
2022/11/13 02:17:55;;;;;;;37.13;25.98;;;;;;;7.97;100.00;101112.94;4900649;29;20024;-84
2022/11/13 02:20:31;;;;;;;33.88;23.10;;;;;;;7.98;100.00;101117.22;4883585;29;20366;-84
2022/11/13 02:23:08;;;;;;;29.77;21.50;;;;;;;7.98;100.00;101114.63;4900351;29;20051;-84
2022/11/13 02:25:34;;;;;;;26.23;20.02;;;;;;;7.94;100.00;101099.13;4900154;29;20033;-85
2022/11/13 02:27:59;;;;;;;25.42;20.08;;;;;;;8.03;100.00;101108.53;4883817;29;20025;-82
2022/11/13 02:30:32;;;;;;;33.63;23.65;;;;;;;8.05;100.00;101114.53;4900428;29;20036;-82
2022/11/13 02:32:58;;;;;;;32.60;22.77;;;;;;;8.00;100.00;101110.28;4883527;29;20029;-82
2022/11/13 02:35:31;;;;;;;33.40;21.73;;;;;;;8.03;100.00;101109.38;4883235;29;20031;-82
2022/11/13 02:38:00;;;;;;;29.15;22.00;;;;;;;7.96;100.00;101097.34;4883110;29;20032;-84
2022/11/13 02:40:26;;;;;;;30.60;20.70;;;;;;;7.98;100.00;101098.22;4899962;29;20029;-84
2022/11/13 02:42:51;;;;;;;33.78;22.55;;;;;;;7.94;100.00;101086.16;4883396;29;20042;-84
2022/11/13 02:45:17;;;;;;;33.38;23.10;;;;;;;7.93;100.00;101094.81;4900159;29;20017;-84
2022/11/13 02:47:42;;;;;;;29.27;20.42;;;;;;;7.90;100.00;101092.25;4883005;29;20465;-84
2022/11/13 02:50:09;;;;;;;29.73;20.63;;;;;;;7.90;100.00;101098.31;4900037;29;20025;-84
2022/11/13 02:52:35;;;;;;;30.00;20.85;;;;;;;7.87;100.00;101084.50;4882813;29;20036;-84
2022/11/13 02:55:01;;;;;;;29.58;20.63;;;;;;;7.90;100.00;101095.72;4883165;29;20342;-84
2022/11/13 02:57:26;;;;;;;31.55;22.33;;;;;;;7.87;100.00;101103.53;4882876;29;20024;-84
2022/11/13 02:59:51;;;;;;;27.42;19.38;;;;;;;7.82;100.00;101102.72;4899940;29;20029;-83
2022/11/13 03:02:17;;;;;;;35.90;24.65;;;;;;;7.78;100.00;101101.03;4882967;29;20033;-82
2022/11/13 03:04:43;;;;;;;33.50;22.85;;;;;;;7.69;100.00;101095.97;4899560;29;20183;-84
2022/11/13 03:07:09;;;;;;;28.90;20.40;;;;;;;7.65;100.00;101095.16;4899635;29;20039;-84
2022/11/13 03:09:34;;;;;;;28.17;21.10;;;;;;;7.65;100.00;101087.38;4882714;29;20020;-84
2022/11/13 03:11:59;;;;;;;33.60;23.02;;;;;;;7.61;100.00;101090.88;4882886;29;20056;-84
2022/11/13 03:14:25;;;;;;;33.80;22.85;;;;;;;7.61;100.00;101087.41;4882611;29;20052;-84
2022/11/13 03:16:50;;;;;;;33.22;23.23;;;;;;;7.56;100.00;101077.09;4899401;29;20376;-84
2022/11/13 03:19:15;;;;;;;33.03;23.75;;;;;;;7.60;100.00;101086.56;4899195;29;20020;-85
2022/11/13 03:21:41;;;;;;;33.03;22.05;;;;;;;7.56;100.00;101077.09;4898165;29;20056;-85
2022/11/13 03:24:06;;;;;;;34.50;23.00;;;;;;;7.44;100.00;101049.56;4899685;29;20096;-84
2022/11/13 03:26:32;;;;;;;31.30;22.15;;;;;;;7.48;100.00;101060.78;4899256;29;20036;-83
2022/11/13 03:28:57;;;;;;;29.65;20.85;;;;;;;7.55;100.00;101065.03;4882592;29;20028;-82
2022/11/13 03:31:23;;;;;;;31.60;22.20;;;;;;;7.61;100.00;101070.13;4882431;29;20024;-82
2022/11/13 03:33:52;;;;;;;32.05;23.08;;;;;;;7.66;100.00;101077.84;4882230;29;20084;-84
2022/11/13 03:36:17;;;;;;;41.30;27.20;;;;;;;7.66;100.00;101076.09;4899038;29;20052;-84
2022/11/13 03:38:42;;;;;;;38.05;24.90;;;;;;;7.64;100.00;101082.22;4899177;29;20461;-84
2022/11/13 03:41:08;;;;;;;37.33;26.63;;;;;;;7.59;100.00;101074.50;4899640;29;20521;-84
2022/11/13 03:43:33;;;;;;;46.70;28.17;;;;;;;7.56;100.00;101074.50;4882234;29;20068;-82
2022/11/13 03:45:58;;;;;;;40.53;28.73;;;;;;;7.45;100.00;101065.97;4899150;29;20029;-82
2022/11/13 03:48:24;;;;;;;44.25;28.58;;;;;;;7.40;100.00;101062.59;4899020;29;20025;-82
2022/11/13 03:50:53;;;;;;;44.05;28.52;;;;;;;7.35;100.00;101059.19;4898688;29;20040;-82
2022/11/13 03:53:19;;;;;;;44.40;26.73;;;;;;;7.45;100.00;101071.16;4899192;29;20052;-82
2022/11/13 03:55:46;;;;;;;40.40;27.75;;;;;;;7.40;100.00;101060.00;4898685;29;20108;-82
2022/11/13 03:58:11;;;;;;;43.20;31.05;;;;;;;7.29;100.00;101059.25;4881982;29;20350;-82
2022/11/13 04:00:38;;;;;;;42.05;32.05;;;;;;;7.33;100.00;101061.81;4898552;29;20031;-82
2022/11/13 04:03:03;;;;;;;42.20;28.67;;;;;;;7.37;100.00;101060.88;4881812;29;20025;-82
2022/11/13 04:05:29;;;;;;;42.03;31.20;;;;;;;7.39;100.00;101053.97;4881552;29;20063;-82
2022/11/13 04:07:54;;;;;;;40.78;29.67;;;;;;;7.41;100.00;101061.72;4881915;29;20020;-82
2022/11/13 04:10:20;;;;;;;46.65;33.22;;;;;;;7.37;100.00;101053.09;4881883;29;20032;-82
2022/11/13 04:12:45;;;;;;;47.38;32.50;;;;;;;7.31;100.00;101047.16;4881589;29;20445;-82
2022/11/13 04:15:10;;;;;;;41.13;30.08;;;;;;;7.36;100.00;101060.91;4898855;29;20040;-82
2022/11/13 04:17:36;;;;;;;42.80;30.73;;;;;;;7.30;100.00;101046.28;4898178;29;20024;-82
2022/11/13 04:20:01;;;;;;;42.30;30.08;;;;;;;7.34;100.00;101055.75;4881627;29;20024;-82
2022/11/13 04:22:26;;;;;;;36.65;28.80;;;;;;;7.33;100.00;101045.38;4881397;29;20469;-82
2022/11/13 04:24:52;;;;;;;45.72;33.05;;;;;;;7.39;100.00;101063.47;4898125;29;20111;-82
2022/11/13 04:27:17;;;;;;;43.10;30.88;;;;;;;7.40;100.00;101060.84;4881497;29;20063;-83
2022/11/13 04:29:42;;;;;;;45.53;32.53;;;;;;;7.42;100.00;101063.44;4876725;29;20477;-82
2022/11/13 04:32:08;;;;;;;40.67;30.48;;;;;;;7.47;100.00;101059.06;4876849;29;20593;-82
2022/11/13 04:34:33;;;;;;;41.28;29.40;;;;;;;7.46;100.00;101059.94;4876824;29;20040;-83
2022/11/13 04:36:59;;;;;;;36.55;29.58;;;;;;;7.45;100.00;101058.22;4876898;29;20100;-82
2022/11/13 04:39:24;;;;;;;45.00;34.05;;;;;;;7.38;100.00;101051.41;4861398;29;20036;-82
2022/11/13 04:44:34;;;;;;;43.17;32.30;;;;;;;7.43;100.00;101070.34;4876817;29;20045;-83
2022/11/13 04:46:59;;;;;;;42.40;32.42;;;;;;;7.46;100.00;101073.75;4876834;29;20037;-83
2022/11/13 04:49:24;;;;;;;41.58;32.03;;;;;;;7.48;100.00;101066.81;4861234;29;20355;-83
2022/11/13 04:51:50;;;;;;;37.85;29.70;;;;;;;7.52;100.00;101074.56;4860940;29;20032;-85
2022/11/13 04:54:15;;;;;;;39.88;30.05;;;;;;;7.54;100.00;101075.38;4861134;29;20186;-85
2022/11/13 04:56:40;;;;;;;48.50;34.28;;;;;;;7.54;100.00;101072.81;4860866;29;20040;-85
2022/11/13 04:59:06;;;;;;;40.47;31.00;;;;;;;7.51;100.00;101065.94;4861130;29;20029;-85
2022/11/13 05:01:31;;;;;;;45.78;32.08;;;;;;;7.56;100.00;101074.50;4877466;29;20417;-85
2022/11/13 05:03:56;;;;;;;42.38;30.88;;;;;;;7.52;100.00;101078.00;4880771;29;20025;-85
2022/11/13 05:06:22;;;;;;;40.35;29.98;;;;;;;7.51;100.00;101076.31;4880862;29;20028;-85
2022/11/13 05:08:47;;;;;;;42.10;29.58;;;;;;;7.55;100.00;101077.13;4880598;29;20483;-85
2022/11/13 05:11:13;;;;;;;45.60;32.10;;;;;;;7.51;100.00;101078.91;4880739;29;20036;-85
2022/11/13 05:13:38;;;;;;;46.83;32.67;;;;;;;7.47;100.00;101064.25;4880480;29;20021;-85
2022/11/13 05:16:06;;;;;;;47.42;31.52;;;;;;;7.45;100.00;101064.25;4880647;29;20470;-85
2022/11/13 05:18:33;;;;;;;48.88;31.63;;;;;;;7.48;100.00;101071.16;4880094;29;20032;-85
2022/11/13 05:20:59;;;;;;;50.03;32.38;;;;;;;7.48;100.00;101069.41;4897328;29;20119;-85
2022/11/13 05:23:24;;;;;;;44.38;31.00;;;;;;;7.45;100.00;101065.97;4897469;29;20176;-85
2022/11/13 05:25:50;;;;;;;49.17;32.80;;;;;;;7.43;100.00;101063.41;4897085;29;20028;-85
2022/11/13 05:28:15;;;;;;;44.97;31.73;;;;;;;7.42;100.00;101058.28;4897303;29;20028;-85
2022/11/13 05:30:41;;;;;;;46.70;31.13;;;;;;;7.46;100.00;101063.41;4880103;29;20028;-85
2022/11/13 05:33:07;;;;;;;48.45;34.92;;;;;;;7.48;100.00;101061.63;4880245;29;20161;-85
2022/11/13 05:35:32;;;;;;;49.00;31.63;;;;;;;7.48;100.00;101065.97;4897077;29;20055;-85
2022/11/13 05:38:01;;;;;;;45.45;31.65;;;;;;;7.56;100.00;101066.72;4880072;29;20384;-85
2022/11/13 05:40:28;;;;;;;49.42;35.28;;;;;;;7.53;100.00;101068.50;4880441;29;20052;-85
2022/11/13 05:42:55;;;;;;;50.47;36.10;;;;;;;7.38;100.00;101044.47;4879414;29;20035;-85
2022/11/13 05:45:20;;;;;;;47.22;31.85;;;;;;;7.46;100.00;101058.22;4897199;29;20088;-85
2022/11/13 05:47:46;;;;;;;44.55;32.08;;;;;;;7.48;100.00;101051.25;4880175;29;20025;-85
2022/11/13 05:50:11;;;;;;;55.25;38.20;;;;;;;7.47;100.00;101059.06;4880281;29;20123;-85
2022/11/13 05:52:37;;;;;;;55.15;34.92;;;;;;;7.46;100.00;101055.63;4880036;29;20345;-85
2022/11/13 05:55:03;;;;;;;52.05;35.22;;;;;;;7.49;100.00;101054.72;4896984;29;20060;-85
2022/11/13 05:57:28;;;;;;;52.45;34.45;;;;;;;7.49;100.00;101052.13;4896721;29;20417;-85
2022/11/13 05:59:53;;;;;;;55.70;36.78;;;;;;;7.47;100.00;101040.91;4879835;29;20088;-85
2022/11/13 06:02:19;;;;;;;46.58;32.90;;;;;;;7.54;100.00;101052.91;4879948;29;20827;-85
2022/11/13 06:04:44;;;;;;;45.45;33.80;;;;;;;7.44;100.00;101034.03;4879903;29;20044;-85
2022/11/13 06:07:09;;;;;;;51.15;33.75;;;;;;;7.51;100.00;101042.59;4897308;29;20036;-84
2022/11/13 06:09:35;;;;;;;46.05;32.70;;;;;;;7.53;100.00;101037.38;4875707;29;20106;-85
2022/11/13 06:12:00;;;;;;;47.85;34.50;;;;;;;7.51;100.00;101047.78;4876074;29;20041;-84
2022/11/13 06:14:25;;;;;;;37.80;28.98;;;;;;;7.39;100.00;101032.38;4860231;29;20440;-84
2022/11/13 06:16:50;;;;;;;37.42;28.83;;;;;;;7.35;100.00;101034.13;4859839;29;20037;-84
2022/11/13 06:19:16;;;;;;;48.00;32.53;;;;;;;7.42;100.00;101048.75;4860100;29;20044;-85
2022/11/13 06:21:41;;;;;;;48.97;34.38;;;;;;;7.34;100.00;101031.56;4875284;29;20056;-84
2022/11/13 06:24:11;;;;;;;42.38;29.77;;;;;;;7.38;100.00;101030.66;4860122;29;20033;-85
2022/11/13 06:26:37;;;;;;;44.47;30.45;;;;;;;7.30;100.00;101014.34;4875403;29;20065;-85
2022/11/13 06:29:04;;;;;;;48.20;31.70;;;;;;;7.39;100.00;101028.03;4859937;29;20033;-85
2022/11/13 06:31:33;;;;;;;46.45;31.35;;;;;;;7.44;100.00;101043.53;4875602;29;20517;-84
2022/11/13 06:33:59;;;;;;;45.15;32.33;;;;;;;7.41;100.00;101043.56;4859771;29;20124;-84
2022/11/13 06:36:27;;;;;;;41.75;29.83;;;;;;;7.38;100.00;101028.94;4859893;29;20025;-85
2022/11/13 06:38:52;;;;;;;39.88;29.00;;;;;;;7.43;100.00;101034.06;4875350;29;20511;-84
2022/11/13 06:41:20;;;;;;;42.33;29.33;;;;;;;7.47;100.00;101046.09;4892628;29;20029;-84
2022/11/13 06:43:46;;;;;;;42.10;30.23;;;;;;;7.41;100.00;101031.47;4896179;29;20080;-84
2022/11/13 06:46:14;;;;;;;39.88;27.35;;;;;;;7.54;100.00;101044.28;4879825;29;20036;-84
2022/11/13 06:48:40;;;;;;;34.20;25.10;;;;;;;7.49;100.00;101029.63;4879559;29;20029;-84
2022/11/13 06:51:08;;;;;;;39.00;28.65;;;;;;;7.56;100.00;101048.59;4879668;29;20040;-84
2022/11/13 06:53:34;;;;;;;40.00;30.00;;;;;;;7.47;100.00;101017.59;4879691;29;20028;-84
2022/11/13 06:56:00;;;;;;;39.58;29.83;;;;;;;7.62;100.00;101043.31;4882406;29;20461;-85
2022/11/13 06:58:26;;;;;;;36.47;26.88;;;;;;;7.61;100.00;101039.00;4900075;29;20032;-85
2022/11/13 07:00:52;;;;;;;37.63;27.15;;;;;;;7.63;100.00;101031.22;4882659;29;20033;-84
2022/11/13 07:03:22;;;;;;;37.75;26.30;;;;;;;7.65;100.00;101040.69;4899823;29;20047;-85
2022/11/13 07:05:48;;;;;;;35.33;27.73;;;;;;;7.69;100.00;101039.78;4882723;29;20112;-85
2022/11/13 07:08:14;;;;;;;36.13;27.20;;;;;;;7.66;100.00;101023.41;4899776;29;20096;-85
2022/11/13 07:10:40;;;;;;;36.30;24.83;;;;;;;7.64;100.00;101014.78;4899424;29;20464;-85
2022/11/13 07:13:06;;;;;;;34.58;26.10;;;;;;;7.82;100.00;101032.69;4899548;29;20088;-84
2022/11/13 07:15:36;;;;;;;41.53;30.13;;;;;;;7.86;100.00;101017.94;4899791;29;20464;-84
2022/11/13 07:18:03;;;;;;;46.45;31.80;;;;;;;7.75;100.00;100999.94;4899431;29;20063;-85
2022/11/13 07:20:29;;;;;;;34.13;26.15;;;;;;;7.90;100.00;101017.88;4882713;29;20032;-84
2022/11/13 07:22:59;;;;;;;37.05;29.70;;;;;;;7.84;100.00;101010.19;4899129;29;20040;-85
2022/11/13 07:25:26;;;;;;;43.30;29.83;;;;;;;7.87;100.00;101017.91;4899370;29;20032;-85
2022/11/13 07:27:51;;;;;;;37.72;27.60;;;;;;;7.92;100.00;101018.75;4882361;29;20453;-84
2022/11/13 07:30:17;;;;;;;41.72;28.23;;;;;;;8.00;100.00;101019.47;4882818;29;20045;-84
2022/11/13 07:32:42;;;;;;;39.85;29.33;;;;;;;7.91;100.00;100998.00;4899491;29;20402;-85
2022/11/13 07:35:08;;;;;;;36.72;28.25;;;;;;;7.90;100.00;101004.06;4882740;29;20029;-85
2022/11/13 07:37:33;;;;;;;43.08;30.15;;;;;;;8.00;100.00;101010.81;4882232;29;20056;-85
2022/11/13 07:39:59;;;;;;;39.15;28.75;;;;;;;7.93;100.00;100999.69;4899146;29;20402;-85
2022/11/13 07:42:25;;;;;;;41.22;27.70;;;;;;;7.91;100.00;100993.66;4882218;29;20417;-85
2022/11/13 07:44:50;;;;;;;41.30;30.00;;;;;;;8.02;100.00;101005.63;4882159;29;20076;-84
2022/11/13 07:47:15;;;;;;;39.15;29.80;;;;;;;8.05;100.00;101016.81;4882260;29;20051;-85
2022/11/13 07:49:41;;;;;;;45.25;32.92;;;;;;;8.03;100.00;101013.38;4899041;29;20024;-85
2022/11/13 07:52:06;;;;;;;45.45;31.77;;;;;;;7.98;100.00;101005.66;4881807;29;20161;-85
2022/11/13 07:54:32;;;;;;;43.08;31.15;;;;;;;8.04;100.00;101003.84;4882046;29;20149;-85
2022/11/13 07:56:58;;;;;;;44.78;33.65;;;;;;;7.99;100.00;101011.72;4898539;29;20032;-85
2022/11/13 07:59:23;;;;;;;45.65;31.73;;;;;;;7.92;100.00;101012.66;4882145;29;20016;-84
2022/11/13 08:01:48;;;;;;;46.15;33.90;;;;;;;7.86;100.00;101017.94;4881795;29;20028;-85
2022/11/13 08:04:14;;;;;;;52.38;34.97;;;;;;;7.78;100.00;101019.78;4884785;29;20401;-84
2022/11/13 08:06:39;;;;;;;46.05;31.42;;;;;;;7.86;100.00;101024.00;4879454;29;20029;-85
2022/11/13 08:09:04;;;;;;;48.08;35.20;;;;;;;7.86;100.00;101017.94;4862947;29;20064;-84
2022/11/13 08:11:30;;;;;;;56.83;36.53;;;;;;;7.95;100.00;101023.88;4863034;29;20029;-85
2022/11/13 08:13:55;;;;;;;46.22;34.42;;;;;;;7.89;100.00;101018.78;4879853;29;20029;-85
2022/11/13 08:16:22;;;;;;;48.00;35.95;;;;;;;7.87;100.00;101001.50;4879778;29;20176;-84
2022/11/13 08:18:48;;;;;;;49.22;35.92;;;;;;;7.89;100.00;101023.97;4862874;29;20021;-85
2022/11/13 08:21:13;;;;;;;50.58;37.65;;;;;;;7.92;100.00;101028.22;4862856;29;20393;-85
2022/11/13 08:23:40;;;;;;;59.38;42.78;;;;;;;7.94;100.00;101023.91;4862993;29;20029;-85
2022/11/13 08:26:07;;;;;;;48.83;36.55;;;;;;;7.96;100.00;101029.91;4862477;29;20028;-84
2022/11/13 08:28:33;;;;;;;51.17;36.25;;;;;;;7.94;100.00;101022.16;4879761;29;20031;-85
2022/11/13 08:30:58;;;;;;;54.95;36.63;;;;;;;8.00;100.00;101021.19;4884868;29;20112;-83
2022/11/13 08:33:23;;;;;;;48.83;35.95;;;;;;;7.98;100.00;101004.81;4898234;29;20036;-83
2022/11/13 08:35:57;;;;;;;53.83;37.33;;;;;;;8.07;100.00;101019.38;4897993;29;20033;-83
2022/11/13 08:38:23;;;;;;;53.65;36.88;;;;;;;8.00;100.00;101014.28;4898019;29;20029;-86
2022/11/13 08:40:49;;;;;;;48.38;36.28;;;;;;;7.97;100.00;101016.94;4881163;29;20032;-86
2022/11/13 08:43:14;;;;;;;51.90;35.88;;;;;;;8.08;100.00;101026.28;4881356;29;20043;-85
2022/11/13 08:45:40;;;;;;;54.97;36.97;;;;;;;8.13;100.00;101022.78;4898610;29;20462;-85
2022/11/13 08:48:06;;;;;;;47.40;33.85;;;;;;;8.24;100.00;101022.59;4880908;29;20061;-85
2022/11/13 08:50:32;;;;;;;53.97;36.58;;;;;;;8.26;100.00;101023.44;4880995;29;20057;-84
2022/11/13 08:52:59;;;;;;;45.40;33.97;;;;;;;8.12;100.00;100997.66;4880698;29;20504;-85
2022/11/13 08:55:25;;;;;;;51.78;37.00;;;;;;;8.18;100.00;101005.38;4881079;29;20031;-85
2022/11/13 08:57:51;;;;;;;49.97;34.83;;;;;;;8.33;100.00;101022.44;4880680;29;20028;-85
2022/11/13 09:00:17;;;;;;;50.28;36.65;;;;;;;8.29;100.00;101013.00;4897837;29;20036;-85
2022/11/13 09:02:43;;;;;;;46.05;33.35;;;;;;;8.21;100.00;101004.47;4880944;29;20024;-85
2022/11/13 09:05:08;;;;;;;58.28;36.78;;;;;;;8.28;100.00;101013.03;4880585;29;20074;-85
2022/11/13 09:07:33;;;;;;;50.05;35.92;;;;;;;8.29;100.00;101018.19;4897522;29;20032;-85
2022/11/13 09:09:59;;;;;;;58.58;39.50;;;;;;;8.18;100.00;101007.97;4880736;29;20115;-85
2022/11/13 09:12:24;;;;;;;54.63;38.97;;;;;;;8.23;100.00;101021.75;4897887;29;20020;-86
2022/11/13 09:14:49;;;;;;;55.88;39.17;;;;;;;8.12;100.00;101014.97;4897626;29;20353;-85
2022/11/13 09:17:16;;;;;;;49.65;35.05;;;;;;;8.16;100.00;101021.84;4880149;29;20028;-84
2022/11/13 09:19:41;;;;;;;50.53;34.53;;;;;;;8.17;100.00;101011.44;4880128;29;20058;-84
2022/11/13 09:22:07;;;;;;;52.83;40.10;;;;;;;8.38;100.00;101025.00;4897121;29;20044;-84
2022/11/13 09:24:32;;;;;;;59.72;41.58;;;;;;;8.44;100.00;101027.50;4896004;29;20024;-84
2022/11/13 09:26:57;;;;;;;61.17;41.58;;;;;;;8.53;100.00;101032.56;4897379;29;20028;-84
2022/11/13 09:29:24;;;;;;;72.88;48.38;;;;;;;8.55;100.00;101040.31;4880021;29;20172;-88
2022/11/13 09:31:50;;;;;;;50.50;34.83;;;;;;;8.42;100.00;101037.91;4880161;29;20035;-88
2022/11/13 09:34:16;;;;;;;58.60;41.17;;;;;;;8.40;100.00;101026.69;4880356;29;20443;-87
2022/11/13 09:36:41;;;;;;;54.92;37.28;;;;;;;8.53;100.00;101037.75;4880083;29;20123;-88
2022/11/13 09:39:06;;;;;;;60.17;40.42;;;;;;;8.44;100.00;101030.97;4895814;29;20032;-87
2022/11/13 09:41:38;;;;;;;53.70;38.67;;;;;;;8.45;100.00;101032.69;4895970;29;20028;-88
2022/11/13 09:44:17;;;;;;;59.92;42.00;;;;;;;8.36;100.00;101019.81;4880024;29;20021;-87
2022/11/13 09:47:04;;;;;;;54.85;39.78;;;;;;;8.38;100.00;101022.41;4880265;29;20063;-87
2022/11/13 09:49:35;;;;;;;59.22;40.17;;;;;;;8.44;100.00;101024.91;4880396;29;20030;-87
2022/11/13 09:52:09;;;;;;;55.28;41.65;;;;;;;8.48;100.00;101026.59;4879702;29;20040;-86
2022/11/13 09:54:34;;;;;;;55.78;39.75;;;;;;;8.44;100.00;101028.38;4880102;29;20469;-86
2022/11/13 09:57:12;;;;;;;60.90;41.72;;;;;;;8.55;100.00;101029.94;4879817;29;20076;-87
2022/11/13 10:00:03;;;;;;;52.90;36.10;;;;;;;8.67;100.00;101027.97;4875899;29;20081;-86
2022/11/13 10:02:53;;;;;;;;;;;;;;;8.75;100.00;101025.25;4869089;29;20033;-86
2022/11/13 10:06:13;;;;;;;60.40;41.30;;;;;;;8.58;100.00;101038.53;4874919;29;19912;-86
2022/11/13 10:09:02;;;;;;;57.55;41.33;;;;;;;8.43;100.00;101020.63;4785280;29;20062;-87
2022/11/13 10:11:47;;;;;;;59.40;42.53;;;;;;;8.38;100.00;101012.03;4786649;29;20026;-87
2022/11/13 10:14:25;;;;;;;60.10;41.22;;;;;;;8.37;100.00;101002.53;4801670;29;20045;-87
2022/11/13 10:16:53;;;;;;;62.13;42.83;;;;;;;8.31;100.00;101008.66;4786614;29;20092;-86
2022/11/13 10:19:39;;;;;;;67.57;44.78;;;;;;;8.33;100.00;101014.66;4786830;29;20391;-86
2022/11/13 10:22:15;;;;;;;61.90;41.17;;;;;;;8.30;100.00;101003.47;4786434;29;20067;-86
2022/11/13 10:24:43;;;;;;;66.97;42.15;;;;;;;8.54;100.00;101010.03;4786798;29;20042;-86
2022/11/13 10:27:10;;;;;;;60.97;40.38;;;;;;;8.54;100.00;101000.50;4786642;29;20042;-86
2022/11/13 10:29:36;;;;;;;62.60;42.75;;;;;;;8.64;100.00;101002.09;4788251;29;20027;-87
2022/11/13 10:32:19;;;;;;;68.20;45.67;;;;;;;8.67;100.00;100999.41;4790373;29;20047;-87
2022/11/13 10:35:11;;;;;;;58.50;43.28;;;;;;;8.56;100.00;100988.38;4790584;29;20037;-87
2022/11/13 10:37:47;;;;;;;62.40;41.17;;;;;;;8.63;100.00;101000.34;4752216;30;20475;-87
2022/11/13 10:40:35;;;;;;;61.67;43.30;;;;;;;8.65;100.00;100993.41;4804644;29;20034;-88
2022/11/13 10:43:26;;;;;;;64.75;43.17;;;;;;;8.59;100.00;100982.25;4838858;29;20487;-88
2022/11/13 10:46:00;;;;;;;67.85;45.05;;;;;;;8.57;100.00;100968.44;4787508;29;20158;-89
2022/11/13 10:48:32;;;;;;;59.08;40.47;;;;;;;8.75;100.00;100979.34;4772377;30;20657;-88
2022/11/13 10:51:04;;;;;;;64.53;41.40;;;;;;;8.84;100.00;100974.88;4772180;30;20070;-89
2022/11/13 10:53:39;;;;;;;61.50;41.10;;;;;;;8.92;99.93;100983.41;4772360;30;20054;-89
2022/11/13 10:56:28;;;;;;;64.53;41.45;;;;;;;9.08;99.82;100978.78;4771970;30;20035;-88
2022/11/13 10:59:00;;;;;;;51.78;36.08;;;;;;;9.20;99.28;100976.78;4772074;30;20062;-88
2022/11/13 11:01:26;;;;;;;51.70;37.17;;;;;;;9.29;98.24;100962.75;4772278;30;20451;-86
2022/11/13 11:03:51;;;;;;;60.22;40.03;;;;;;;9.45;97.51;100963.31;4787258;30;20051;-88
2022/11/13 11:06:17;;;;;;;52.08;35.65;;;;;;;9.53;97.68;100934.53;4751027;30;20092;-86
2022/11/13 11:08:42;;;;;;;66.00;44.22;;;;;;;9.64;96.63;100954.19;4751359;30;20040;-86
2022/11/13 11:14:22;;;;;;;61.55;43.33;;;;;;;9.62;95.80;100957.75;4751703;30;20047;-86
2022/11/13 11:16:51;;;;;;;65.88;43.72;;;;;;;9.36;95.87;100933.16;4736475;30;20385;-86